EGBJ METAR and TAF | Updated Today

EGBJ METAR

Gloucestershire Airport

Observation time: 31 min. ago

EGBJ 061750Z 00000KT CAVOK 06/01 Q1039

Need help? Read our tutorial on how to read METARs or read the parsed version below.

Gloucestershire Airport (EGBJ) METAR

  • Weather conditions on Mon, 06 Feb 2023 17:50:00 +0000 (31 min. ago):
  • Present conditions: Dry
  • Clouds: Clear skies
  • Visibility: Greater than 10 km
  • Wind: Calm
  • Temperature: 6 celsius
  • Dew point: 1 celsius
  • Pressure: 1039 millibars
  • Remarks: None


Useful to know...

EGBJ TAF

Gloucestershire Airport

TAF EGBJ 061658Z 0618/0620 VRB03KT CAVOK PROB30 0618/0620 6000
Observation time: 83 min. ago
Need help? Read our tutorial on how to read TAFs or read the parsed version below.

Parsed version of TAF for Gloucestershire Airport (EGBJ)

  • From 06 February at 18:00 UTC, to day 06 of the month at 20:00 UTC
  • Visibility: Greater than 10 km
  • Wind: Variable at 3
  • From 06 February at 18:00 UTC, to day 06 of the month at 20:00 UTC
    Probability of 30%
  • Visibility: 6000 meters